DAL1916 KATL-MDPC
Flight info
| Callsign | DAL1916 |
|---|---|
| Flight time | 2h 43m |
| Altitude | 35000 |
| Route | VRSTY3 NOKIE DCT YANTI Q89 MANLE Y185 VENDS Y306 HAGIT DCT POKEG UT17 KOBET DCT PETRI W28 PNA |
| Aircraft | A321/M-SDE3FGHIRWY/LB1 |
Departure
| Time | 2026-05-06 15:26 |
|---|---|
| Airport | Hartsfield Jackson Atlanta International Airport (KATL) |
Arrival
| Time | 2026-05-06 18:09 |
|---|---|
| Airport | Punta Cana International Airport (MDPC) |
| Time | Latitude | Longitude | Altitude | Speed | Heading |
|---|---|---|---|---|---|
| 2026-05-06 14:37 | 33.64402 | -84.42519 | 1036 ft | 0 kts | 271° |
| 2026-05-06 15:14 | 33.64402 | -84.42504 | 1035 ft | 4 kts | 265° |
| 2026-05-06 15:15 | 33.64403 | -84.42472 | 1035 ft | 4 kts | 262° |
| 2026-05-06 15:15 | 33.64410 | -84.42442 | 1035 ft | 4 kts | 238° |
| 2026-05-06 15:15 | 33.64428 | -84.42422 | 1035 ft | 4 kts | 189° |
| 2026-05-06 15:15 | 33.64439 | -84.42421 | 1035 ft | 1 kts | 180° |
| 2026-05-06 15:17 | 33.64430 | -84.42421 | 1035 ft | 4 kts | 180° |
| 2026-05-06 15:17 | 33.64380 | -84.42421 | 1035 ft | 10 kts | 180° |
| 2026-05-06 15:18 | 33.64295 | -84.42410 | 1035 ft | 14 kts | 155° |
| 2026-05-06 15:18 | 33.64252 | -84.42300 | 1035 ft | 16 kts | 104° |
| 2026-05-06 15:18 | 33.64152 | -84.42240 | 1035 ft | 18 kts | 182° |
| 2026-05-06 15:18 | 33.64044 | -84.42243 | 1035 ft | 14 kts | 182° |
| 2026-05-06 15:19 | 33.63962 | -84.42245 | 1035 ft | 10 kts | 180° |
| 2026-05-06 15:19 | 33.63905 | -84.42241 | 1035 ft | 6 kts | 176° |
| 2026-05-06 15:19 | 33.63872 | -84.42239 | 1035 ft | 4 kts | 178° |
| 2026-05-06 15:19 | 33.63838 | -84.42239 | 1035 ft | 5 kts | 179° |
| 2026-05-06 15:20 | 33.63795 | -84.42238 | 1036 ft | 7 kts | 180° |
| 2026-05-06 15:20 | 33.63739 | -84.42239 | 1036 ft | 9 kts | 180° |
| 2026-05-06 15:20 | 33.63673 | -84.42214 | 1036 ft | 11 kts | 140° |
| 2026-05-06 15:20 | 33.63621 | -84.42132 | 1036 ft | 12 kts | 121° |
| 2026-05-06 15:21 | 33.63588 | -84.42054 | 1036 ft | 9 kts | 110° |
| 2026-05-06 15:21 | 33.63582 | -84.41992 | 1036 ft | 8 kts | 92° |
| 2026-05-06 15:21 | 33.63582 | -84.41916 | 1035 ft | 8 kts | 89° |
| 2026-05-06 15:21 | 33.63582 | -84.41852 | 1035 ft | 9 kts | 90° |
| 2026-05-06 15:22 | 33.63582 | -84.41741 | 1035 ft | 18 kts | 90° |
| 2026-05-06 15:22 | 33.63582 | -84.41581 | 1035 ft | 19 kts | 90° |
| 2026-05-06 15:22 | 33.63582 | -84.41428 | 1034 ft | 18 kts | 90° |
| 2026-05-06 15:22 | 33.63582 | -84.41285 | 1035 ft | 16 kts | 90° |
| 2026-05-06 15:23 | 33.63581 | -84.41160 | 1035 ft | 14 kts | 90° |
| 2026-05-06 15:23 | 33.63581 | -84.41050 | 1035 ft | 12 kts | 90° |
| 2026-05-06 15:23 | 33.63579 | -84.40953 | 1035 ft | 9 kts | 100° |
| 2026-05-06 15:23 | 33.63575 | -84.40932 | 1035 ft | 0 kts | 107° |
| 2026-05-06 15:24 | 33.63574 | -84.40931 | 1035 ft | 0 kts | 107° |
| 2026-05-06 15:24 | 33.63548 | -84.40910 | 1036 ft | 10 kts | 169° |
| 2026-05-06 15:25 | 33.63483 | -84.40926 | 1036 ft | 9 kts | 223° |
| 2026-05-06 15:25 | 33.63473 | -84.41015 | 1035 ft | 19 kts | 271° |
| 2026-05-06 15:25 | 33.63471 | -84.41449 | 1035 ft | 84 kts | 270° |
| 2026-05-06 15:25 | 33.63470 | -84.42368 | 1037 ft | 134 kts | 270° |
| 2026-05-06 15:26 | 33.63473 | -84.43644 | 1085 ft | 167 kts | 266° |
| 2026-05-06 15:26 | 33.63484 | -84.44979 | 1848 ft | 156 kts | 266° |
| 2026-05-06 15:26 | 33.63482 | -84.46301 | 2408 ft | 160 kts | 265° |
| 2026-05-06 15:26 | 33.63467 | -84.47663 | 2822 ft | 171 kts | 266° |
| 2026-05-06 15:27 | 33.63444 | -84.49164 | 2972 ft | 188 kts | 266° |
| 2026-05-06 15:27 | 33.63426 | -84.50783 | 3159 ft | 200 kts | 267° |
| 2026-05-06 15:27 | 33.63418 | -84.51938 | 3233 ft | 211 kts | 268° |
| 2026-05-06 15:27 | 33.63414 | -84.53792 | 3381 ft | 232 kts | 267° |
| 2026-05-06 15:28 | 33.63411 | -84.55809 | 3809 ft | 247 kts | 267° |
| 2026-05-06 15:28 | 33.63397 | -84.57872 | 4623 ft | 248 kts | 268° |
| 2026-05-06 15:28 | 33.63398 | -84.59939 | 5428 ft | 249 kts | 269° |
| 2026-05-06 15:28 | 33.63417 | -84.62014 | 6218 ft | 250 kts | 270° |
| 2026-05-06 15:29 | 33.63256 | -84.64101 | 6934 ft | 252 kts | 254° |
| 2026-05-06 15:29 | 33.62456 | -84.65980 | 7628 ft | 258 kts | 234° |
| 2026-05-06 15:29 | 33.61091 | -84.67405 | 8365 ft | 263 kts | 214° |
| 2026-05-06 15:29 | 33.59499 | -84.68450 | 9210 ft | 261 kts | 216° |
| 2026-05-06 15:30 | 33.57783 | -84.69252 | 9865 ft | 272 kts | 199° |
| 2026-05-06 15:30 | 33.55860 | -84.69406 | 10431 ft | 285 kts | 181° |
| 2026-05-06 15:30 | 33.53874 | -84.69049 | 11004 ft | 290 kts | 179° |
| 2026-05-06 15:30 | 33.51865 | -84.68663 | 11596 ft | 293 kts | 179° |
| 2026-05-06 15:31 | 33.49837 | -84.68277 | 12199 ft | 297 kts | 180° |
| 2026-05-06 15:31 | 33.47788 | -84.67891 | 12821 ft | 300 kts | 180° |
| 2026-05-06 15:31 | 33.45709 | -84.67501 | 13419 ft | 304 kts | 179° |
| 2026-05-06 15:32 | 33.41698 | -84.65263 | 14384 ft | 344 kts | 146° |
| 2026-05-06 15:32 | 33.40101 | -84.62960 | 14499 ft | 375 kts | 125° |
| 2026-05-06 15:32 | 33.38772 | -84.60167 | 14632 ft | 397 kts | 124° |
| 2026-05-06 15:32 | 33.37378 | -84.57231 | 14748 ft | 416 kts | 124° |
| 2026-05-06 15:33 | 33.35915 | -84.54165 | 14907 ft | 432 kts | 124° |
| 2026-05-06 15:33 | 33.34411 | -84.51021 | 15281 ft | 439 kts | 124° |
| 2026-05-06 15:33 | 33.32880 | -84.47830 | 15729 ft | 443 kts | 124° |
| 2026-05-06 15:33 | 33.31334 | -84.44622 | 16169 ft | 447 kts | 124° |
| 2026-05-06 15:34 | 33.29751 | -84.41350 | 16616 ft | 452 kts | 124° |
| 2026-05-06 15:34 | 33.28188 | -84.38123 | 17046 ft | 455 kts | 123° |
| 2026-05-06 15:34 | 33.26594 | -84.34835 | 17530 ft | 460 kts | 123° |
| 2026-05-06 15:34 | 33.24964 | -84.31473 | 17979 ft | 464 kts | 123° |
| 2026-05-06 15:35 | 33.23344 | -84.28129 | 18425 ft | 468 kts | 123° |
| 2026-05-06 15:35 | 33.21703 | -84.24743 | 18792 ft | 472 kts | 123° |
| 2026-05-06 15:35 | 33.20054 | -84.21340 | 19185 ft | 475 kts | 123° |
| 2026-05-06 15:35 | 33.18395 | -84.17925 | 19581 ft | 478 kts | 123° |
| 2026-05-06 15:36 | 33.16722 | -84.14485 | 19980 ft | 480 kts | 123° |
| 2026-05-06 15:36 | 33.15037 | -84.11027 | 20362 ft | 483 kts | 122° |
| 2026-05-06 15:36 | 33.13342 | -84.07559 | 20750 ft | 486 kts | 122° |
| 2026-05-06 15:36 | 33.11634 | -84.04063 | 21133 ft | 488 kts | 122° |
| 2026-05-06 15:37 | 33.09845 | -84.00614 | 21519 ft | 490 kts | 128° |
| 2026-05-06 15:37 | 33.07686 | -83.97479 | 21895 ft | 488 kts | 137° |
| 2026-05-06 15:37 | 33.05169 | -83.94774 | 22266 ft | 486 kts | 147° |
| 2026-05-06 15:37 | 33.02412 | -83.92457 | 22651 ft | 487 kts | 150° |
| 2026-05-06 15:38 | 32.99621 | -83.90145 | 22975 ft | 491 kts | 149° |
| 2026-05-06 15:38 | 32.96807 | -83.87800 | 23262 ft | 495 kts | 149° |
| 2026-05-06 15:38 | 32.93981 | -83.85428 | 23589 ft | 499 kts | 149° |
| 2026-05-06 15:38 | 32.91144 | -83.83041 | 23885 ft | 501 kts | 148° |
| 2026-05-06 15:39 | 32.88290 | -83.80644 | 24201 ft | 503 kts | 148° |
| 2026-05-06 15:39 | 32.85421 | -83.78243 | 24525 ft | 504 kts | 149° |
| 2026-05-06 15:39 | 32.82542 | -83.75844 | 24860 ft | 506 kts | 149° |
| 2026-05-06 15:39 | 32.79652 | -83.73441 | 25191 ft | 507 kts | 149° |
| 2026-05-06 15:40 | 32.76759 | -83.71040 | 25517 ft | 508 kts | 149° |
| 2026-05-06 15:40 | 32.73862 | -83.68639 | 25828 ft | 510 kts | 149° |
| 2026-05-06 15:40 | 32.70940 | -83.66222 | 26052 ft | 513 kts | 149° |
| 2026-05-06 15:40 | 32.67995 | -83.63780 | 26251 ft | 518 kts | 149° |
| 2026-05-06 15:41 | 32.65069 | -83.61275 | 26508 ft | 521 kts | 148° |
| 2026-05-06 15:41 | 32.62160 | -83.58705 | 26791 ft | 523 kts | 147° |
| 2026-05-06 15:41 | 32.59254 | -83.56091 | 27100 ft | 524 kts | 146° |
| 2026-05-06 15:41 | 32.56355 | -83.53470 | 27393 ft | 526 kts | 146° |
| 2026-05-06 15:42 | 32.53443 | -83.50851 | 27744 ft | 526 kts | 146° |
| 2026-05-06 15:42 | 32.50514 | -83.48241 | 28056 ft | 526 kts | 146° |
| 2026-05-06 15:42 | 32.47584 | -83.45656 | 28414 ft | 525 kts | 147° |
| 2026-05-06 15:42 | 32.44654 | -83.43089 | 28776 ft | 523 kts | 147° |
| 2026-05-06 15:43 | 32.41682 | -83.40497 | 28965 ft | 527 kts | 148° |
| 2026-05-06 15:43 | 32.38752 | -83.37948 | 29128 ft | 531 kts | 148° |
| 2026-05-06 15:43 | 32.35739 | -83.35324 | 29408 ft | 532 kts | 148° |
| 2026-05-06 15:43 | 32.32762 | -83.32718 | 29794 ft | 532 kts | 147° |
| 2026-05-06 15:44 | 32.29791 | -83.30107 | 30150 ft | 531 kts | 147° |
| 2026-05-06 15:44 | 32.26828 | -83.27504 | 30456 ft | 530 kts | 148° |
| 2026-05-06 15:44 | 32.23873 | -83.24910 | 30747 ft | 530 kts | 148° |
| 2026-05-06 15:44 | 32.20913 | -83.22319 | 31041 ft | 530 kts | 148° |
| 2026-05-06 15:45 | 32.17949 | -83.19732 | 31333 ft | 529 kts | 148° |
| 2026-05-06 15:45 | 32.14993 | -83.17155 | 31560 ft | 530 kts | 148° |
| 2026-05-06 15:45 | 32.12009 | -83.14557 | 31716 ft | 533 kts | 148° |
| 2026-05-06 15:45 | 32.09024 | -83.11966 | 31984 ft | 534 kts | 148° |
| 2026-05-06 15:46 | 32.06029 | -83.09366 | 32283 ft | 533 kts | 148° |
| 2026-05-06 15:46 | 32.03052 | -83.06778 | 32574 ft | 533 kts | 148° |
| 2026-05-06 15:46 | 32.00072 | -83.04186 | 32877 ft | 532 kts | 148° |
| 2026-05-06 15:46 | 31.97092 | -83.01601 | 33184 ft | 531 kts | 148° |
| 2026-05-06 15:47 | 31.94109 | -82.99019 | 33487 ft | 531 kts | 148° |
| 2026-05-06 15:47 | 31.91138 | -82.96453 | 33787 ft | 530 kts | 149° |
| 2026-05-06 15:47 | 31.88170 | -82.93889 | 34081 ft | 530 kts | 148° |
| 2026-05-06 15:47 | 31.85194 | -82.91314 | 34240 ft | 532 kts | 148° |
| 2026-05-06 15:48 | 31.82214 | -82.88733 | 34409 ft | 533 kts | 149° |
| 2026-05-06 15:48 | 31.79219 | -82.86144 | 34635 ft | 533 kts | 149° |
| 2026-05-06 15:48 | 31.76263 | -82.83523 | 34881 ft | 534 kts | 147° |
| 2026-05-06 15:48 | 31.73342 | -82.80801 | 35062 ft | 536 kts | 146° |
| 2026-05-06 15:49 | 31.67633 | -82.75247 | 35107 ft | 533 kts | 144° |
| 2026-05-06 15:49 | 31.61929 | -82.69692 | 35106 ft | 531 kts | 145° |
| 2026-05-06 15:50 | 31.56188 | -82.64236 | 35112 ft | 532 kts | 146° |
| 2026-05-06 15:50 | 31.50368 | -82.58778 | 35118 ft | 532 kts | 146° |
| 2026-05-06 15:51 | 31.44624 | -82.53393 | 35120 ft | 532 kts | 146° |
| 2026-05-06 15:51 | 31.38823 | -82.47925 | 35127 ft | 532 kts | 146° |
| 2026-05-06 15:52 | 31.33059 | -82.42491 | 35132 ft | 532 kts | 146° |
| 2026-05-06 15:52 | 31.27278 | -82.37060 | 35108 ft | 532 kts | 145° |
| 2026-05-06 15:53 | 31.21498 | -82.31645 | 35116 ft | 533 kts | 146° |
| 2026-05-06 15:53 | 31.15720 | -82.26240 | 35121 ft | 533 kts | 146° |
| 2026-05-06 15:54 | 31.09929 | -82.20826 | 35134 ft | 533 kts | 146° |
| 2026-05-06 15:54 | 31.04148 | -82.15425 | 35165 ft | 533 kts | 146° |
| 2026-05-06 15:55 | 30.98359 | -82.10019 | 35111 ft | 533 kts | 146° |
| 2026-05-06 15:55 | 30.92573 | -82.04642 | 35163 ft | 532 kts | 146° |
| 2026-05-06 15:56 | 30.86769 | -81.99268 | 35167 ft | 532 kts | 146° |
| 2026-05-06 15:56 | 30.80991 | -81.93915 | 35148 ft | 531 kts | 146° |
| 2026-05-06 15:57 | 30.75207 | -81.88555 | 35147 ft | 531 kts | 146° |
| 2026-05-06 15:57 | 30.69429 | -81.83215 | 35139 ft | 531 kts | 146° |
| 2026-05-06 15:58 | 30.63637 | -81.77874 | 35118 ft | 531 kts | 146° |
| 2026-05-06 15:58 | 30.57717 | -81.72681 | 35121 ft | 528 kts | 149° |
| 2026-05-06 15:59 | 30.51698 | -81.67917 | 35123 ft | 527 kts | 151° |
| 2026-05-06 15:59 | 30.45607 | -81.63184 | 35129 ft | 527 kts | 150° |
| 2026-05-06 16:00 | 30.40539 | -81.59152 | 35114 ft | 528 kts | 150° |
| 2026-05-06 16:00 | 30.34509 | -81.54280 | 35115 ft | 529 kts | 149° |
| 2026-05-06 16:01 | 30.28477 | -81.49405 | 35132 ft | 529 kts | 149° |
| 2026-05-06 16:01 | 30.22430 | -81.44562 | 35125 ft | 529 kts | 150° |
| 2026-05-06 16:02 | 30.16370 | -81.39728 | 35131 ft | 529 kts | 150° |
| 2026-05-06 16:02 | 30.10322 | -81.34900 | 35108 ft | 529 kts | 149° |
| 2026-05-06 16:03 | 30.04281 | -81.30074 | 35129 ft | 528 kts | 149° |
| 2026-05-06 16:03 | 29.98234 | -81.25263 | 35139 ft | 528 kts | 149° |
| 2026-05-06 16:04 | 29.92180 | -81.20470 | 35137 ft | 528 kts | 149° |
| 2026-05-06 16:04 | 29.86123 | -81.15675 | 35136 ft | 528 kts | 149° |
| 2026-05-06 16:05 | 29.79879 | -81.11328 | 35110 ft | 519 kts | 161° |
| 2026-05-06 16:05 | 29.73193 | -81.08136 | 35119 ft | 517 kts | 163° |
| 2026-05-06 16:06 | 29.66529 | -81.05001 | 35124 ft | 517 kts | 163° |
| 2026-05-06 16:06 | 29.59864 | -81.01856 | 35126 ft | 517 kts | 163° |
| 2026-05-06 16:07 | 29.53209 | -80.98723 | 35124 ft | 517 kts | 163° |
| 2026-05-06 16:07 | 29.46555 | -80.95592 | 35116 ft | 516 kts | 163° |
| 2026-05-06 16:08 | 29.39915 | -80.92466 | 35129 ft | 516 kts | 163° |
| 2026-05-06 16:08 | 29.33273 | -80.89346 | 35135 ft | 516 kts | 163° |
| 2026-05-06 16:09 | 29.26622 | -80.86223 | 35132 ft | 516 kts | 163° |
| 2026-05-06 16:09 | 29.19989 | -80.83110 | 35111 ft | 516 kts | 162° |
| 2026-05-06 16:10 | 29.13343 | -80.80008 | 35123 ft | 515 kts | 163° |
| 2026-05-06 16:10 | 29.06706 | -80.76914 | 35127 ft | 515 kts | 163° |
| 2026-05-06 16:11 | 29.00070 | -80.73819 | 35128 ft | 515 kts | 162° |
| 2026-05-06 16:11 | 28.93435 | -80.70722 | 35128 ft | 515 kts | 162° |
| 2026-05-06 16:12 | 28.87177 | -80.66529 | 35105 ft | 523 kts | 142° |
| 2026-05-06 16:12 | 28.82281 | -80.60475 | 35109 ft | 525 kts | 123° |
| 2026-05-06 16:13 | 28.78225 | -80.53486 | 35111 ft | 525 kts | 123° |
| 2026-05-06 16:13 | 28.74175 | -80.46547 | 35104 ft | 526 kts | 123° |
| 2026-05-06 16:14 | 28.70118 | -80.39619 | 35102 ft | 526 kts | 123° |
| 2026-05-06 16:14 | 28.66032 | -80.32708 | 35099 ft | 526 kts | 123° |
| 2026-05-06 16:15 | 28.61923 | -80.25802 | 35108 ft | 526 kts | 123° |
| 2026-05-06 16:15 | 28.57818 | -80.18901 | 35106 ft | 526 kts | 123° |
| 2026-05-06 16:16 | 28.53719 | -80.12012 | 35134 ft | 526 kts | 123° |
| 2026-05-06 16:16 | 28.49614 | -80.05127 | 35137 ft | 525 kts | 123° |
| 2026-05-06 16:17 | 28.45512 | -79.98262 | 35144 ft | 525 kts | 123° |
| 2026-05-06 16:17 | 28.41407 | -79.91402 | 35144 ft | 525 kts | 123° |
| 2026-05-06 16:18 | 28.37302 | -79.84548 | 35143 ft | 525 kts | 123° |
| 2026-05-06 16:18 | 28.33192 | -79.77704 | 35150 ft | 525 kts | 123° |
| 2026-05-06 16:19 | 28.29075 | -79.70851 | 35149 ft | 525 kts | 123° |
| 2026-05-06 16:19 | 28.24934 | -79.63972 | 35143 ft | 525 kts | 123° |
| 2026-05-06 16:20 | 28.20817 | -79.57148 | 35144 ft | 524 kts | 123° |
| 2026-05-06 16:20 | 28.16701 | -79.50323 | 35152 ft | 523 kts | 123° |
| 2026-05-06 16:21 | 28.12588 | -79.43526 | 35150 ft | 523 kts | 123° |
| 2026-05-06 16:21 | 28.08470 | -79.36736 | 35155 ft | 523 kts | 123° |
| 2026-05-06 16:22 | 28.04353 | -79.29953 | 35148 ft | 522 kts | 123° |
| 2026-05-06 16:22 | 28.00238 | -79.23179 | 35141 ft | 522 kts | 123° |
| 2026-05-06 16:23 | 27.96118 | -79.16419 | 35147 ft | 522 kts | 123° |
| 2026-05-06 16:23 | 27.91990 | -79.09662 | 35126 ft | 522 kts | 123° |
| 2026-05-06 16:24 | 27.87874 | -79.02911 | 35143 ft | 521 kts | 122° |
| 2026-05-06 16:24 | 27.83758 | -78.96168 | 35153 ft | 521 kts | 123° |
| 2026-05-06 16:25 | 27.79629 | -78.89430 | 35147 ft | 521 kts | 123° |
| 2026-05-06 16:25 | 27.75495 | -78.82707 | 35153 ft | 521 kts | 123° |
| 2026-05-06 16:26 | 27.71368 | -78.75987 | 35148 ft | 521 kts | 123° |
| 2026-05-06 16:26 | 27.67237 | -78.69283 | 35147 ft | 520 kts | 123° |
| 2026-05-06 16:27 | 27.63113 | -78.62577 | 35152 ft | 519 kts | 122° |
| 2026-05-06 16:27 | 27.59220 | -78.55751 | 35148 ft | 517 kts | 120° |
| 2026-05-06 16:28 | 27.55321 | -78.48953 | 35126 ft | 515 kts | 121° |
| 2026-05-06 16:28 | 27.51331 | -78.42249 | 35128 ft | 515 kts | 121° |
| 2026-05-06 16:29 | 27.47355 | -78.35545 | 35129 ft | 515 kts | 121° |
| 2026-05-06 16:29 | 27.43402 | -78.28819 | 35126 ft | 515 kts | 121° |
| 2026-05-06 16:30 | 27.40768 | -78.24320 | 35124 ft | 514 kts | 121° |
| 2026-05-06 16:30 | 27.35521 | -78.15377 | 35129 ft | 514 kts | 121° |
| 2026-05-06 16:31 | 27.31062 | -78.09069 | 35123 ft | 517 kts | 130° |
| 2026-05-06 16:31 | 27.26262 | -78.02986 | 35130 ft | 517 kts | 130° |
| 2026-05-06 16:32 | 27.21496 | -77.96930 | 35128 ft | 517 kts | 130° |
| 2026-05-06 16:32 | 27.17546 | -77.91902 | 35133 ft | 517 kts | 130° |
| 2026-05-06 16:33 | 27.12773 | -77.85856 | 35138 ft | 517 kts | 130° |
| 2026-05-06 16:34 | 27.05622 | -77.76818 | 35127 ft | 516 kts | 130° |
| 2026-05-06 16:34 | 27.00850 | -77.70798 | 35131 ft | 516 kts | 130° |
| 2026-05-06 16:35 | 26.96081 | -77.64783 | 35123 ft | 516 kts | 130° |
| 2026-05-06 16:35 | 26.90508 | -77.57771 | 35116 ft | 515 kts | 130° |
| 2026-05-06 16:36 | 26.86513 | -77.52749 | 35119 ft | 515 kts | 130° |
| 2026-05-06 16:36 | 26.81756 | -77.46779 | 35126 ft | 514 kts | 130° |
| 2026-05-06 16:37 | 26.76989 | -77.40796 | 35123 ft | 514 kts | 130° |
| 2026-05-06 16:37 | 26.72227 | -77.34828 | 35127 ft | 514 kts | 130° |
| 2026-05-06 16:38 | 26.67458 | -77.28871 | 35122 ft | 514 kts | 130° |
| 2026-05-06 16:38 | 26.62693 | -77.22926 | 35127 ft | 513 kts | 130° |
| 2026-05-06 16:39 | 26.57933 | -77.16977 | 35117 ft | 513 kts | 130° |
| 2026-05-06 16:39 | 26.53169 | -77.11040 | 35123 ft | 513 kts | 130° |
| 2026-05-06 16:40 | 26.48399 | -77.05120 | 35112 ft | 512 kts | 130° |
| 2026-05-06 16:40 | 26.43634 | -76.99204 | 35115 ft | 512 kts | 130° |
| 2026-05-06 16:41 | 26.38874 | -76.93296 | 35117 ft | 512 kts | 130° |
| 2026-05-06 16:41 | 26.34114 | -76.87397 | 35110 ft | 512 kts | 130° |
| 2026-05-06 16:42 | 26.29351 | -76.81507 | 35122 ft | 511 kts | 130° |
| 2026-05-06 16:42 | 26.24589 | -76.75614 | 35111 ft | 511 kts | 130° |
| 2026-05-06 16:43 | 26.19827 | -76.69745 | 35116 ft | 511 kts | 130° |
| 2026-05-06 16:43 | 26.15028 | -76.63846 | 35118 ft | 510 kts | 130° |
| 2026-05-06 16:44 | 26.10273 | -76.57997 | 35116 ft | 510 kts | 130° |
| 2026-05-06 16:44 | 26.05510 | -76.52146 | 35118 ft | 510 kts | 130° |
| 2026-05-06 16:45 | 26.00747 | -76.46299 | 35128 ft | 509 kts | 130° |
| 2026-05-06 16:45 | 25.95996 | -76.40466 | 35128 ft | 509 kts | 130° |
| 2026-05-06 16:46 | 25.91238 | -76.34643 | 35114 ft | 509 kts | 130° |
| 2026-05-06 16:46 | 25.86478 | -76.28820 | 35121 ft | 509 kts | 130° |
| 2026-05-06 16:47 | 25.81715 | -76.23004 | 35127 ft | 509 kts | 130° |
| 2026-05-06 16:47 | 25.76948 | -76.17202 | 35125 ft | 508 kts | 130° |
| 2026-05-06 16:48 | 25.72191 | -76.11402 | 35130 ft | 508 kts | 130° |
| 2026-05-06 16:48 | 25.67435 | -76.05613 | 35132 ft | 508 kts | 130° |
| 2026-05-06 16:49 | 25.62669 | -75.99833 | 35129 ft | 508 kts | 130° |
| 2026-05-06 16:49 | 25.57908 | -75.94051 | 35130 ft | 508 kts | 130° |
| 2026-05-06 16:50 | 25.53146 | -75.88280 | 35122 ft | 507 kts | 130° |
| 2026-05-06 16:50 | 25.48388 | -75.82523 | 35126 ft | 507 kts | 130° |
| 2026-05-06 16:51 | 25.43626 | -75.76776 | 35133 ft | 506 kts | 130° |
| 2026-05-06 16:51 | 25.38869 | -75.71032 | 35130 ft | 506 kts | 130° |
| 2026-05-06 16:52 | 25.34078 | -75.65262 | 35126 ft | 506 kts | 130° |
| 2026-05-06 16:52 | 25.29320 | -75.59538 | 35128 ft | 506 kts | 130° |
| 2026-05-06 16:53 | 25.24562 | -75.53808 | 35132 ft | 505 kts | 130° |
| 2026-05-06 16:53 | 25.19808 | -75.48098 | 35122 ft | 505 kts | 130° |
| 2026-05-06 16:54 | 25.15047 | -75.42387 | 35132 ft | 505 kts | 130° |
| 2026-05-06 16:54 | 25.10294 | -75.36685 | 35121 ft | 505 kts | 130° |
| 2026-05-06 16:55 | 25.05535 | -75.31001 | 35119 ft | 505 kts | 130° |
| 2026-05-06 16:55 | 25.00772 | -75.25304 | 35109 ft | 505 kts | 130° |
| 2026-05-06 16:56 | 24.96007 | -75.19614 | 35112 ft | 505 kts | 130° |
| 2026-05-06 16:56 | 24.91236 | -75.13930 | 35117 ft | 505 kts | 130° |
| 2026-05-06 16:57 | 24.86463 | -75.08257 | 35110 ft | 505 kts | 130° |
| 2026-05-06 16:57 | 24.81680 | -75.02570 | 35124 ft | 506 kts | 130° |
| 2026-05-06 16:58 | 24.76898 | -74.96887 | 35124 ft | 506 kts | 130° |
| 2026-05-06 16:58 | 24.72119 | -74.91206 | 35119 ft | 506 kts | 130° |
| 2026-05-06 16:59 | 24.67323 | -74.85530 | 35117 ft | 506 kts | 130° |
| 2026-05-06 16:59 | 24.62525 | -74.79856 | 35120 ft | 506 kts | 130° |
| 2026-05-06 17:00 | 24.57708 | -74.74148 | 35116 ft | 506 kts | 130° |
| 2026-05-06 17:00 | 24.52907 | -74.68483 | 35108 ft | 506 kts | 130° |
| 2026-05-06 17:01 | 24.48109 | -74.62834 | 35113 ft | 506 kts | 130° |
| 2026-05-06 17:01 | 24.43312 | -74.57185 | 35116 ft | 505 kts | 130° |
| 2026-05-06 17:02 | 24.38524 | -74.51546 | 35123 ft | 505 kts | 130° |
| 2026-05-06 17:02 | 24.33725 | -74.45915 | 35126 ft | 505 kts | 130° |
| 2026-05-06 17:03 | 24.28930 | -74.40282 | 35128 ft | 505 kts | 130° |
| 2026-05-06 17:03 | 24.24135 | -74.34650 | 35137 ft | 505 kts | 129° |
| 2026-05-06 17:04 | 24.19333 | -74.29028 | 35129 ft | 505 kts | 130° |
| 2026-05-06 17:04 | 24.14520 | -74.23411 | 35117 ft | 505 kts | 129° |
| 2026-05-06 17:05 | 24.09711 | -74.17804 | 35116 ft | 505 kts | 129° |
| 2026-05-06 17:05 | 24.04913 | -74.12193 | 35113 ft | 505 kts | 129° |
| 2026-05-06 17:06 | 24.00111 | -74.06585 | 35113 ft | 505 kts | 129° |
| 2026-05-06 17:06 | 23.95307 | -74.00999 | 35113 ft | 505 kts | 130° |
| 2026-05-06 17:07 | 23.91263 | -73.96311 | 35119 ft | 505 kts | 129° |
| 2026-05-06 17:07 | 23.86444 | -73.90716 | 35113 ft | 505 kts | 129° |
| 2026-05-06 17:08 | 23.81625 | -73.85125 | 35108 ft | 506 kts | 129° |
| 2026-05-06 17:08 | 23.76800 | -73.79539 | 35109 ft | 506 kts | 129° |
| 2026-05-06 17:09 | 23.71980 | -73.73951 | 35112 ft | 506 kts | 129° |
| 2026-05-06 17:09 | 23.67148 | -73.68361 | 35116 ft | 506 kts | 129° |
| 2026-05-06 17:10 | 23.62318 | -73.62788 | 35126 ft | 506 kts | 129° |
| 2026-05-06 17:10 | 23.57472 | -73.57210 | 35115 ft | 506 kts | 129° |
| 2026-05-06 17:11 | 23.52626 | -73.51631 | 35118 ft | 506 kts | 129° |
| 2026-05-06 17:11 | 23.47784 | -73.46053 | 35104 ft | 506 kts | 129° |
| 2026-05-06 17:12 | 23.42951 | -73.40486 | 35102 ft | 506 kts | 129° |
| 2026-05-06 17:12 | 23.38102 | -73.34927 | 35100 ft | 506 kts | 129° |
| 2026-05-06 17:13 | 23.33243 | -73.29364 | 35116 ft | 506 kts | 129° |
| 2026-05-06 17:13 | 23.28395 | -73.23802 | 35112 ft | 507 kts | 129° |
| 2026-05-06 17:14 | 23.23539 | -73.18242 | 35108 ft | 507 kts | 129° |
| 2026-05-06 17:14 | 23.18645 | -73.12653 | 35106 ft | 507 kts | 129° |
| 2026-05-06 17:15 | 23.13786 | -73.07116 | 35104 ft | 506 kts | 129° |
| 2026-05-06 17:15 | 23.08929 | -73.01585 | 35094 ft | 506 kts | 129° |
| 2026-05-06 17:16 | 23.04070 | -72.96044 | 35090 ft | 506 kts | 129° |
| 2026-05-06 17:16 | 22.99207 | -72.90510 | 35102 ft | 506 kts | 129° |
| 2026-05-06 17:17 | 22.94538 | -72.84827 | 35110 ft | 503 kts | 124° |
| 2026-05-06 17:17 | 22.90231 | -72.78855 | 35108 ft | 502 kts | 122° |
| 2026-05-06 17:18 | 22.85967 | -72.72855 | 35110 ft | 502 kts | 123° |
| 2026-05-06 17:18 | 22.81613 | -72.66931 | 35107 ft | 503 kts | 124° |
| 2026-05-06 17:19 | 22.77193 | -72.61044 | 35097 ft | 503 kts | 124° |
| 2026-05-06 17:19 | 22.72773 | -72.55173 | 35115 ft | 503 kts | 124° |
| 2026-05-06 17:20 | 22.68374 | -72.49281 | 35117 ft | 502 kts | 124° |
| 2026-05-06 17:20 | 22.63990 | -72.43395 | 35114 ft | 502 kts | 124° |
| 2026-05-06 17:21 | 22.59599 | -72.37520 | 35107 ft | 502 kts | 124° |
| 2026-05-06 17:21 | 22.55212 | -72.31658 | 35115 ft | 502 kts | 124° |
| 2026-05-06 17:22 | 22.50775 | -72.25737 | 35102 ft | 502 kts | 124° |
| 2026-05-06 17:22 | 22.46380 | -72.19877 | 35106 ft | 502 kts | 124° |
| 2026-05-06 17:23 | 22.41989 | -72.14020 | 35106 ft | 501 kts | 124° |
| 2026-05-06 17:23 | 22.37591 | -72.08176 | 35107 ft | 501 kts | 124° |
| 2026-05-06 17:24 | 22.33202 | -72.02352 | 35102 ft | 500 kts | 124° |
| 2026-05-06 17:24 | 22.28806 | -71.96521 | 35109 ft | 500 kts | 124° |
| 2026-05-06 17:25 | 22.24418 | -71.90698 | 35118 ft | 500 kts | 124° |
| 2026-05-06 17:25 | 22.20032 | -71.84892 | 35112 ft | 499 kts | 124° |
| 2026-05-06 17:26 | 22.15635 | -71.79097 | 35096 ft | 499 kts | 125° |
| 2026-05-06 17:26 | 22.11249 | -71.73295 | 35108 ft | 499 kts | 124° |
| 2026-05-06 17:27 | 22.06857 | -71.67486 | 35101 ft | 499 kts | 124° |
| 2026-05-06 17:27 | 22.02462 | -71.61695 | 35092 ft | 499 kts | 125° |
| 2026-05-06 17:28 | 21.98074 | -71.55916 | 35109 ft | 498 kts | 125° |
| 2026-05-06 17:28 | 21.93683 | -71.50130 | 35115 ft | 498 kts | 125° |
| 2026-05-06 17:29 | 21.89291 | -71.44367 | 35111 ft | 498 kts | 125° |
| 2026-05-06 17:29 | 21.84895 | -71.38606 | 35104 ft | 497 kts | 125° |
| 2026-05-06 17:30 | 21.80513 | -71.32849 | 35114 ft | 497 kts | 125° |
| 2026-05-06 17:30 | 21.76133 | -71.27100 | 35109 ft | 497 kts | 125° |
| 2026-05-06 17:31 | 21.71743 | -71.21354 | 35106 ft | 497 kts | 125° |
| 2026-05-06 17:31 | 21.67314 | -71.15579 | 35098 ft | 497 kts | 125° |
| 2026-05-06 17:32 | 21.62924 | -71.09853 | 35098 ft | 496 kts | 125° |
| 2026-05-06 17:32 | 21.58453 | -71.04201 | 35097 ft | 499 kts | 132° |
| 2026-05-06 17:33 | 21.52882 | -70.99685 | 35112 ft | 504 kts | 144° |
| 2026-05-06 17:33 | 21.47003 | -70.95567 | 35107 ft | 504 kts | 144° |
| 2026-05-06 17:34 | 21.41129 | -70.91435 | 35092 ft | 505 kts | 144° |
| 2026-05-06 17:34 | 21.35259 | -70.87306 | 35120 ft | 505 kts | 144° |
| 2026-05-06 17:35 | 21.29382 | -70.83187 | 35107 ft | 504 kts | 144° |
| 2026-05-06 17:35 | 21.23512 | -70.79078 | 35096 ft | 504 kts | 144° |
| 2026-05-06 17:36 | 21.14718 | -70.72925 | 35100 ft | 503 kts | 144° |
| 2026-05-06 17:36 | 21.08860 | -70.68833 | 35100 ft | 503 kts | 144° |
| 2026-05-06 17:37 | 21.02995 | -70.64747 | 35103 ft | 503 kts | 144° |
| 2026-05-06 17:37 | 20.97140 | -70.60663 | 35081 ft | 502 kts | 144° |
| 2026-05-06 17:38 | 20.91243 | -70.56549 | 35092 ft | 503 kts | 144° |
| 2026-05-06 17:38 | 20.85425 | -70.52495 | 35105 ft | 502 kts | 145° |
| 2026-05-06 17:39 | 20.80521 | -70.49086 | 35089 ft | 502 kts | 145° |
| 2026-05-06 17:39 | 20.74670 | -70.45029 | 35102 ft | 501 kts | 145° |
| 2026-05-06 17:40 | 20.68831 | -70.40977 | 35100 ft | 500 kts | 145° |
| 2026-05-06 17:40 | 20.62995 | -70.36927 | 35085 ft | 500 kts | 145° |
| 2026-05-06 17:41 | 20.57155 | -70.32880 | 35074 ft | 500 kts | 145° |
| 2026-05-06 17:41 | 20.51329 | -70.28844 | 35075 ft | 499 kts | 145° |
| 2026-05-06 17:42 | 20.45501 | -70.24806 | 35076 ft | 499 kts | 145° |
| 2026-05-06 17:42 | 20.39669 | -70.20781 | 35075 ft | 499 kts | 146° |
| 2026-05-06 17:43 | 20.33839 | -70.16766 | 35099 ft | 498 kts | 146° |
| 2026-05-06 17:43 | 20.27994 | -70.12738 | 35079 ft | 497 kts | 146° |
| 2026-05-06 17:44 | 20.22184 | -70.08734 | 35081 ft | 497 kts | 146° |
| 2026-05-06 17:44 | 20.16276 | -70.04933 | 35074 ft | 497 kts | 155° |
| 2026-05-06 17:45 | 20.09965 | -70.01941 | 35069 ft | 497 kts | 156° |
| 2026-05-06 17:45 | 20.03651 | -69.98961 | 35067 ft | 497 kts | 156° |
| 2026-05-06 17:46 | 19.97332 | -69.95985 | 35066 ft | 497 kts | 156° |
| 2026-05-06 17:46 | 19.91007 | -69.93005 | 35065 ft | 496 kts | 156° |
| 2026-05-06 17:47 | 19.84698 | -69.90033 | 35066 ft | 496 kts | 156° |
| 2026-05-06 17:47 | 19.78383 | -69.87058 | 35065 ft | 496 kts | 156° |
| 2026-05-06 17:48 | 19.72071 | -69.84096 | 35082 ft | 495 kts | 157° |
| 2026-05-06 17:48 | 19.65779 | -69.81148 | 35080 ft | 494 kts | 156° |
| 2026-05-06 17:49 | 19.59500 | -69.78195 | 35071 ft | 493 kts | 157° |
| 2026-05-06 17:49 | 19.53231 | -69.75247 | 35075 ft | 493 kts | 157° |
| 2026-05-06 17:50 | 19.50087 | -69.73771 | 34489 ft | 496 kts | 157° |
| 2026-05-06 17:50 | 19.46815 | -69.72486 | 33189 ft | 507 kts | 167° |
| 2026-05-06 17:50 | 19.43361 | -69.71747 | 32170 ft | 508 kts | 175° |
| 2026-05-06 17:50 | 19.39829 | -69.71488 | 31132 ft | 509 kts | 180° |
| 2026-05-06 17:51 | 19.36278 | -69.71290 | 30011 ft | 513 kts | 177° |
| 2026-05-06 17:51 | 19.32754 | -69.70576 | 28809 ft | 518 kts | 165° |
| 2026-05-06 17:51 | 19.29392 | -69.69168 | 27525 ft | 524 kts | 153° |
| 2026-05-06 17:51 | 19.26355 | -69.67058 | 26625 ft | 521 kts | 141° |
| 2026-05-06 17:52 | 19.23763 | -69.64404 | 25565 ft | 516 kts | 129° |
| 2026-05-06 17:52 | 19.21737 | -69.61300 | 24562 ft | 512 kts | 118° |
| 2026-05-06 17:52 | 19.19992 | -69.57975 | 23773 ft | 509 kts | 118° |
| 2026-05-06 17:52 | 19.18298 | -69.54768 | 23106 ft | 501 kts | 118° |
| 2026-05-06 17:53 | 19.16567 | -69.51516 | 22267 ft | 497 kts | 119° |
| 2026-05-06 17:53 | 19.14880 | -69.48370 | 21642 ft | 488 kts | 119° |
| 2026-05-06 17:53 | 19.13211 | -69.45265 | 20877 ft | 483 kts | 120° |
| 2026-05-06 17:53 | 19.11565 | -69.42200 | 20079 ft | 479 kts | 120° |
| 2026-05-06 17:54 | 19.09932 | -69.39157 | 19460 ft | 472 kts | 120° |
| 2026-05-06 17:54 | 19.08314 | -69.36140 | 18755 ft | 467 kts | 120° |
| 2026-05-06 17:54 | 19.06722 | -69.33167 | 18021 ft | 463 kts | 120° |
| 2026-05-06 17:54 | 19.05149 | -69.30231 | 17414 ft | 455 kts | 120° |
| 2026-05-06 17:55 | 19.03599 | -69.27339 | 16749 ft | 449 kts | 120° |
| 2026-05-06 17:55 | 19.02085 | -69.24517 | 16534 ft | 432 kts | 120° |
| 2026-05-06 17:55 | 19.00633 | -69.21812 | 16417 ft | 414 kts | 120° |
| 2026-05-06 17:55 | 18.99246 | -69.19228 | 16285 ft | 398 kts | 120° |
| 2026-05-06 17:56 | 18.97905 | -69.16729 | 16174 ft | 383 kts | 120° |
| 2026-05-06 17:56 | 18.96619 | -69.14323 | 16007 ft | 368 kts | 119° |
| 2026-05-06 17:56 | 18.95398 | -69.11980 | 15364 ft | 362 kts | 118° |
| 2026-05-06 17:56 | 18.94207 | -69.09640 | 14654 ft | 360 kts | 118° |
| 2026-05-06 17:57 | 18.93043 | -69.07334 | 14131 ft | 352 kts | 118° |
| 2026-05-06 17:57 | 18.91902 | -69.05070 | 13506 ft | 346 kts | 118° |
| 2026-05-06 17:57 | 18.90776 | -69.02846 | 12889 ft | 338 kts | 118° |
| 2026-05-06 17:57 | 18.89672 | -69.00673 | 12392 ft | 335 kts | 118° |
| 2026-05-06 17:58 | 18.88571 | -68.98513 | 11872 ft | 332 kts | 118° |
| 2026-05-06 17:58 | 18.87468 | -68.96355 | 11351 ft | 335 kts | 119° |
| 2026-05-06 17:58 | 18.86375 | -68.94222 | 11152 ft | 325 kts | 119° |
| 2026-05-06 17:58 | 18.85316 | -68.92154 | 11027 ft | 314 kts | 119° |
| 2026-05-06 17:59 | 18.84300 | -68.90167 | 10901 ft | 302 kts | 119° |
| 2026-05-06 17:59 | 18.83320 | -68.88252 | 10797 ft | 291 kts | 120° |
| 2026-05-06 17:59 | 18.82281 | -68.86474 | 10676 ft | 279 kts | 126° |
| 2026-05-06 17:59 | 18.81171 | -68.84831 | 10498 ft | 270 kts | 127° |
| 2026-05-06 18:00 | 18.80091 | -68.83225 | 10054 ft | 267 kts | 126° |
| 2026-05-06 18:00 | 18.79012 | -68.81616 | 9592 ft | 263 kts | 127° |
| 2026-05-06 18:00 | 18.77978 | -68.80076 | 9263 ft | 259 kts | 127° |
| 2026-05-06 18:00 | 18.76941 | -68.78533 | 8975 ft | 256 kts | 127° |
| 2026-05-06 18:01 | 18.75919 | -68.77012 | 8668 ft | 253 kts | 126° |
| 2026-05-06 18:01 | 18.74895 | -68.75488 | 8367 ft | 251 kts | 126° |
| 2026-05-06 18:01 | 18.73889 | -68.73990 | 8066 ft | 248 kts | 126° |
| 2026-05-06 18:01 | 18.72867 | -68.72551 | 7836 ft | 241 kts | 134° |
| 2026-05-06 18:02 | 18.71655 | -68.71344 | 7521 ft | 242 kts | 137° |
| 2026-05-06 18:02 | 18.70390 | -68.70110 | 7198 ft | 252 kts | 137° |
| 2026-05-06 18:02 | 18.69101 | -68.68854 | 6868 ft | 252 kts | 137° |
| 2026-05-06 18:02 | 18.67818 | -68.67606 | 6524 ft | 251 kts | 137° |
| 2026-05-06 18:03 | 18.66533 | -68.66357 | 6194 ft | 251 kts | 137° |
| 2026-05-06 18:03 | 18.65252 | -68.65114 | 5859 ft | 250 kts | 137° |
| 2026-05-06 18:03 | 18.63985 | -68.63887 | 5522 ft | 243 kts | 137° |
| 2026-05-06 18:03 | 18.62752 | -68.62692 | 5208 ft | 240 kts | 137° |
| 2026-05-06 18:04 | 18.61525 | -68.61501 | 4888 ft | 239 kts | 137° |
| 2026-05-06 18:04 | 18.60319 | -68.60331 | 4572 ft | 231 kts | 137° |
| 2026-05-06 18:04 | 18.59174 | -68.59218 | 4297 ft | 219 kts | 137° |
| 2026-05-06 18:04 | 18.58064 | -68.58139 | 4010 ft | 215 kts | 138° |
| 2026-05-06 18:05 | 18.56975 | -68.57083 | 3708 ft | 212 kts | 138° |
| 2026-05-06 18:05 | 18.55909 | -68.56027 | 3427 ft | 207 kts | 133° |
| 2026-05-06 18:05 | 18.55263 | -68.54708 | 3161 ft | 203 kts | 105° |
| 2026-05-06 18:05 | 18.55265 | -68.53282 | 2900 ft | 187 kts | 90° |
| 2026-05-06 18:06 | 18.55386 | -68.51940 | 2662 ft | 183 kts | 89° |
| 2026-05-06 18:06 | 18.55502 | -68.50618 | 2397 ft | 178 kts | 88° |
| 2026-05-06 18:06 | 18.55616 | -68.49336 | 2238 ft | 177 kts | 88° |
| 2026-05-06 18:06 | 18.55731 | -68.48040 | 2026 ft | 176 kts | 88° |
| 2026-05-06 18:07 | 18.55841 | -68.46786 | 1804 ft | 162 kts | 88° |
| 2026-05-06 18:07 | 18.55936 | -68.45639 | 1467 ft | 152 kts | 90° |
| 2026-05-06 18:07 | 18.56033 | -68.44574 | 1281 ft | 144 kts | 90° |
| 2026-05-06 18:07 | 18.56118 | -68.43536 | 1115 ft | 141 kts | 90° |
| 2026-05-06 18:08 | 18.56200 | -68.42512 | 960 ft | 140 kts | 88° |
| 2026-05-06 18:08 | 18.56291 | -68.41496 | 745 ft | 140 kts | 91° |
| 2026-05-06 18:08 | 18.56378 | -68.40487 | 605 ft | 137 kts | 88° |
| 2026-05-06 18:08 | 18.56463 | -68.39485 | 413 ft | 138 kts | 89° |
| 2026-05-06 18:09 | 18.56558 | -68.38477 | 216 ft | 136 kts | 90° |
| 2026-05-06 18:09 | 18.56637 | -68.37486 | 50 ft | 132 kts | 88° |
| 2026-05-06 18:09 | 18.56696 | -68.36824 | 53 ft | 36 kts | 84° |
| 2026-05-06 18:09 | 18.56682 | -68.36753 | 52 ft | 7 kts | 162° |
| 2026-05-06 18:10 | 18.56631 | -68.36754 | 52 ft | 8 kts | 181° |
| 2026-05-06 18:10 | 18.56568 | -68.36756 | 51 ft | 10 kts | 183° |
| 2026-05-06 18:10 | 18.56522 | -68.36791 | 50 ft | 8 kts | 257° |
| 2026-05-06 18:10 | 18.56515 | -68.36850 | 50 ft | 8 kts | 264° |
| 2026-05-06 18:11 | 18.56510 | -68.36905 | 50 ft | 7 kts | 265° |
| 2026-05-06 18:11 | 18.56508 | -68.36938 | 50 ft | 7 kts | 265° |
| 2026-05-06 18:11 | 18.56504 | -68.36983 | 47 ft | 6 kts | 265° |
| 2026-05-06 18:11 | 18.56494 | -68.37105 | 50 ft | 19 kts | 264° |
| 2026-05-06 18:12 | 18.56486 | -68.37188 | 50 ft | 10 kts | 264° |
| 2026-05-06 18:12 | 18.56472 | -68.37221 | 48 ft | 4 kts | 209° |
| 2026-05-06 18:12 | 18.56444 | -68.37221 | 50 ft | 4 kts | 175° |
| 2026-05-06 18:12 | 18.56428 | -68.37219 | 50 ft | 1 kts | 174° |
| 2026-05-06 18:13 | 18.56424 | -68.37219 | 50 ft | 0 kts | 174° |